createdAt,value
2022-11-26T00:00:33.233Z,100903.16
2022-11-26T00:03:00.005Z,100898.09
2022-11-26T00:05:31.087Z,100902.50
2022-11-26T00:08:00.407Z,100905.06
2022-11-26T00:10:29.934Z,100903.22
2022-11-26T00:12:57.606Z,100910.84
2022-11-26T00:15:26.618Z,100894.72
2022-11-26T00:17:53.513Z,100899.13
2022-11-26T00:20:24.935Z,100881.72
2022-11-26T00:22:55.446Z,100872.28
2022-11-26T00:25:25.420Z,100885.75
2022-11-26T00:27:54.413Z,100884.28
2022-11-26T00:30:25.123Z,100879.25
2022-11-26T00:32:53.346Z,100875.78
2022-11-26T00:35:21.073Z,100861.63
2022-11-26T00:37:48.771Z,100868.75
2022-11-26T00:40:24.970Z,100850.56
2022-11-26T00:42:52.236Z,100855.41
2022-11-26T00:45:25.959Z,100851.50
2022-11-26T00:47:53.397Z,100848.06
2022-11-26T00:50:23.346Z,100847.22
2022-11-26T00:52:53.422Z,100843.19
2022-11-26T00:55:25.800Z,100853.94
2022-11-26T00:57:52.522Z,100851.28
2022-11-26T01:00:22.888Z,100839.06
2022-11-26T01:02:52.925Z,100834.81
2022-11-26T01:05:20.792Z,100821.16
2022-11-26T01:07:47.918Z,100827.16
2022-11-26T01:10:18.200Z,100824.84
2022-11-26T01:12:45.117Z,100832.47
2022-11-26T01:15:13.312Z,100839.63
2022-11-26T01:17:40.240Z,100838.00
2022-11-26T01:20:30.942Z,100818.63
2022-11-26T01:22:58.796Z,100828.88
2022-11-26T01:25:26.911Z,100820.94
2022-11-26T01:27:54.019Z,100819.31
2022-11-26T01:30:26.205Z,100814.94
2022-11-26T01:32:52.858Z,100807.13
2022-11-26T01:35:20.445Z,100809.19
2022-11-26T01:37:47.966Z,100823.16
2022-11-26T01:40:26.636Z,100817.59
2022-11-26T01:42:59.609Z,100820.38
2022-11-26T01:45:26.701Z,100809.81
2022-11-26T01:47:53.362Z,100810.59
2022-11-26T01:50:29.303Z,100805.06
2022-11-26T01:52:57.552Z,100798.38
2022-11-26T01:55:26.456Z,100796.41
2022-11-26T01:57:53.221Z,100796.56
2022-11-26T02:00:19.956Z,100798.16
2022-11-26T02:02:46.797Z,100788.72
2022-11-26T02:05:29.785Z,100815.34
2022-11-26T02:07:57.403Z,100802.31
2022-11-26T02:10:24.152Z,100796.94
2022-11-26T02:12:51.663Z,100815.25
2022-11-26T02:15:18.578Z,100805.78
2022-11-26T02:17:52.607Z,100809.72
2022-11-26T02:20:34.357Z,100794.63
2022-11-26T02:23:18.455Z,100788.63
2022-11-26T02:26:03.244Z,100790.09
2022-11-26T02:28:57.158Z,100784.91
2022-11-26T02:31:47.347Z,100782.50
2022-11-26T02:34:17.747Z,100783.63
2022-11-26T02:37:06.075Z,100782.81
2022-11-26T02:39:32.834Z,100779.94
2022-11-26T02:42:04.097Z,100781.91
2022-11-26T02:44:39.744Z,100770.34
2022-11-26T02:47:11.483Z,100766.31
2022-11-26T02:49:40.262Z,100760.78
2022-11-26T02:52:08.220Z,100770.03
2022-11-26T02:54:37.310Z,100771.28
2022-11-26T02:57:07.637Z,100769.00
2022-11-26T02:59:35.268Z,100755.97
2022-11-26T03:02:17.102Z,100752.06
2022-11-26T03:04:50.089Z,100747.31
2022-11-26T03:07:18.442Z,100742.25
2022-11-26T03:09:57.371Z,100729.69
2022-11-26T03:12:24.482Z,100738.44
2022-11-26T03:14:51.615Z,100751.16
2022-11-26T03:17:18.899Z,100744.78
2022-11-26T03:19:46.215Z,100732.22
2022-11-26T03:22:14.041Z,100725.88
2022-11-26T03:24:41.489Z,100722.66
2022-11-26T03:27:08.175Z,100707.66
2022-11-26T03:29:34.832Z,100724.03
2022-11-26T03:32:01.540Z,100714.25
2022-11-26T03:34:28.214Z,100700.88
2022-11-26T03:36:54.858Z,100699.00
2022-11-26T03:39:21.513Z,100695.09
2022-11-26T03:41:48.159Z,100697.84
2022-11-26T03:44:15.082Z,100699.47
2022-11-26T03:46:42.077Z,100695.53
2022-11-26T03:49:08.753Z,100687.25
2022-11-26T03:51:35.463Z,100697.84
2022-11-26T03:54:02.228Z,100688.75
2022-11-26T03:56:29.341Z,100694.63
2022-11-26T03:58:55.933Z,100691.38
2022-11-26T04:01:22.651Z,100702.81
2022-11-26T04:03:49.303Z,100688.16
2022-11-26T04:06:17.150Z,100699.59
2022-11-26T04:08:43.919Z,100691.63
2022-11-26T04:11:10.622Z,100690.34
2022-11-26T04:13:37.263Z,100687.94
2022-11-26T04:16:03.933Z,100660.59
2022-11-26T04:18:30.553Z,100667.75
2022-11-26T04:20:57.214Z,100666.47
2022-11-26T04:23:24.857Z,100663.34
2022-11-26T04:25:51.655Z,100676.88
2022-11-26T04:28:18.360Z,100665.91
2022-11-26T04:30:45.236Z,100654.94
2022-11-26T04:33:11.846Z,100656.56
2022-11-26T04:35:38.810Z,100657.03
2022-11-26T04:38:05.847Z,100651.03
2022-11-26T04:40:32.835Z,100648.25
2022-11-26T04:42:59.462Z,100641.91
2022-11-26T04:45:26.241Z,100646.31
2022-11-26T04:47:53.668Z,100640.41
2022-11-26T04:50:20.582Z,100642.38
2022-11-26T04:52:48.598Z,100642.72
2022-11-26T04:55:16.646Z,100643.88
2022-11-26T04:57:43.776Z,100651.03
2022-11-26T05:00:11.608Z,100649.41
2022-11-26T05:02:38.302Z,100653.81
2022-11-26T05:05:05.303Z,100650.22
2022-11-26T05:07:32.131Z,100645.50
2022-11-26T05:09:58.823Z,100630.03
2022-11-26T05:12:25.805Z,100628.75
2022-11-26T05:14:52.729Z,100623.22
2022-11-26T05:17:19.340Z,100613.66
2022-11-26T05:19:46.074Z,100612.03
2022-11-26T05:22:12.871Z,100613.22
2022-11-26T05:24:39.781Z,100612.03
2022-11-26T05:27:06.674Z,100607.31
2022-11-26T05:29:33.362Z,100599.81
2022-11-26T05:32:00.142Z,100590.72
2022-11-26T05:34:27.235Z,100597.06
2022-11-26T05:36:54.255Z,100585.16
2022-11-26T05:39:20.977Z,100587.50
2022-11-26T05:41:47.669Z,100592.22
2022-11-26T05:44:14.380Z,100597.28
2022-11-26T05:46:42.807Z,100590.50
2022-11-26T05:49:09.891Z,100587.59
2022-11-26T05:51:36.735Z,100589.09
2022-11-26T05:54:03.828Z,100580.00
2022-11-26T05:56:30.511Z,100570.44
2022-11-26T05:58:57.260Z,100569.66
2022-11-26T06:01:24.030Z,100565.59
2022-11-26T06:03:50.975Z,100560.41
2022-11-26T06:06:17.994Z,100559.97
2022-11-26T06:08:44.601Z,100548.06
2022-11-26T06:11:14.228Z,100541.72
2022-11-26T06:13:40.882Z,100542.53
2022-11-26T06:16:09.113Z,100548.91
2022-11-26T06:18:39.323Z,100554.44
2022-11-26T06:21:07.247Z,100548.91
2022-11-26T06:23:34.522Z,100538.63
2022-11-26T06:26:01.622Z,100523.63
2022-11-26T06:28:28.242Z,100524.44
2022-11-26T06:30:54.855Z,100529.97
2022-11-26T06:33:21.486Z,100520.06
2022-11-26T06:35:48.124Z,100518.09
2022-11-26T06:38:14.779Z,100510.59
2022-11-26T06:40:41.361Z,100509.09
2022-11-26T06:43:08.503Z,100501.63
2022-11-26T06:45:36.267Z,100498.47
2022-11-26T06:48:03.126Z,100492.38
2022-11-26T06:50:29.790Z,100486.13
2022-11-26T06:52:56.468Z,100485.19
2022-11-26T06:55:23.091Z,100482.63
2022-11-26T06:57:51.467Z,100474.06
2022-11-26T07:00:18.836Z,100470.22
2022-11-26T07:02:45.670Z,100484.63
2022-11-26T07:05:12.315Z,100495.44
2022-11-26T07:07:39.784Z,100491.66
2022-11-26T07:10:07.959Z,100491.28
2022-11-26T07:12:34.678Z,100486.66
2022-11-26T07:15:01.440Z,100471.31
2022-11-26T07:17:29.520Z,100474.16
2022-11-26T07:19:56.314Z,100460.78
2022-11-26T07:22:22.920Z,100458.44
2022-11-26T07:24:49.645Z,100464.88
2022-11-26T07:27:16.287Z,100459.78
2022-11-26T07:29:42.925Z,100467.75
2022-11-26T07:32:09.616Z,100451.94
2022-11-26T07:34:36.446Z,100450.75
2022-11-26T07:37:03.417Z,100446.84
2022-11-26T07:39:30.385Z,100433.34
2022-11-26T07:41:57.002Z,100430.59
2022-11-26T07:44:23.599Z,100443.63
2022-11-26T07:46:50.304Z,100438.97
2022-11-26T07:49:17.255Z,100433.16
2022-11-26T07:51:44.114Z,100423.69
2022-11-26T07:54:10.902Z,100433.63
2022-11-26T07:56:37.607Z,100420.56
2022-11-26T07:59:04.741Z,100418.97
2022-11-26T08:01:32.541Z,100424.84
2022-11-26T08:04:00.494Z,100427.63
2022-11-26T08:06:29.548Z,100416.19
2022-11-26T08:08:58.431Z,100411.09
2022-11-26T08:11:27.661Z,100414.75
2022-11-26T08:13:56.882Z,100419.56
2022-11-26T08:16:23.551Z,100425.13
2022-11-26T08:19:08.344Z,100415.28
2022-11-26T08:21:36.138Z,100408.59
2022-11-26T08:24:03.815Z,100415.75
2022-11-26T08:26:35.838Z,100420.56
2022-11-26T08:29:05.199Z,100413.16
2022-11-26T08:31:31.938Z,100408.03
2022-11-26T08:34:00.362Z,100409.66
2022-11-26T08:36:28.919Z,100412.44
2022-11-26T08:38:56.081Z,100406.91
2022-11-26T08:41:23.650Z,100401.78
2022-11-26T08:44:07.540Z,100410.09
2022-11-26T08:46:40.662Z,100401.06
2022-11-26T08:49:12.171Z,100385.31
2022-11-26T08:51:39.102Z,100388.56
2022-11-26T08:54:05.797Z,100391.41
2022-11-26T08:56:32.881Z,100400.53
2022-11-26T08:58:59.607Z,100388.72
2022-11-26T09:01:32.448Z,100391.91
2022-11-26T09:04:00.600Z,100382.44
2022-11-26T09:06:29.578Z,100383.69
2022-11-26T09:09:15.172Z,100377.78
2022-11-26T09:11:54.265Z,100371.06
2022-11-26T09:14:25.001Z,100366.69
2022-11-26T09:16:53.073Z,100371.53
2022-11-26T09:19:19.872Z,100369.19
2022-11-26T09:21:47.212Z,100373.69
2022-11-26T09:24:14.328Z,100368.56
2022-11-26T09:26:41.071Z,100373.31
2022-11-26T09:29:08.286Z,100379.28
2022-11-26T09:31:35.100Z,100373.75
2022-11-26T09:34:02.676Z,100383.25
2022-11-26T09:36:29.883Z,100387.56
2022-11-26T09:38:58.000Z,100378.06
2022-11-26T09:41:27.681Z,100386.03
2022-11-26T09:44:03.178Z,100376.53
2022-11-26T09:47:13.280Z,100362.75
2022-11-26T09:49:58.551Z,100362.38
2022-11-26T09:52:30.336Z,100356.03
2022-11-26T09:55:05.634Z,100354.03
2022-11-26T09:57:41.207Z,100352.09
2022-11-26T10:00:22.659Z,100344.56
2022-11-26T10:02:52.372Z,100341.06
2022-11-26T10:05:21.744Z,100337.88
2022-11-26T10:08:04.461Z,100336.69
2022-11-26T10:10:45.144Z,100322.09
2022-11-26T10:13:22.410Z,100323.25
2022-11-26T10:16:19.312Z,100328.06
2022-11-26T10:19:07.601Z,100313.03
2022-11-26T10:24:36.229Z,100308.00
2022-11-26T10:27:13.179Z,100310.41
2022-11-26T10:29:43.257Z,100302.53
2022-11-26T10:32:28.039Z,100316.84
2022-11-26T10:34:57.645Z,100312.84
2022-11-26T10:37:26.879Z,100302.53
2022-11-26T10:40:11.435Z,100307.28
2022-11-26T10:42:43.763Z,100315.22
2022-11-26T10:45:24.689Z,100311.28
2022-11-26T10:47:51.613Z,100308.94
2022-11-26T10:53:21.691Z,100308.31
2022-11-26T10:55:49.113Z,100297.97
2022-11-26T10:58:31.483Z,100287.34
2022-11-26T11:00:59.921Z,100290.13
2022-11-26T11:06:21.643Z,100296.09
2022-11-26T11:08:51.063Z,100289.00
2022-11-26T11:11:29.497Z,100285.84
2022-11-26T11:13:56.939Z,100281.53
2022-11-26T11:16:29.028Z,100270.50
2022-11-26T11:19:00.469Z,100260.66
2022-11-26T11:21:34.787Z,100262.69
2022-11-26T11:24:21.057Z,100265.09
2022-11-26T11:26:50.119Z,100263.50
2022-11-26T11:29:30.211Z,100256.75
2022-11-26T11:31:57.949Z,100260.72
2022-11-26T11:34:32.936Z,100264.31
2022-11-26T11:37:03.684Z,100250.78
2022-11-26T11:39:33.723Z,100238.06
2022-11-26T11:42:03.586Z,100240.84
2022-11-26T11:44:44.480Z,100220.63
2022-11-26T11:47:39.154Z,100226.97
2022-11-26T11:50:16.875Z,100222.59
2022-11-26T11:53:15.537Z,100207.09
2022-11-26T11:56:02.473Z,100211.06
2022-11-26T11:58:47.812Z,100192.81
2022-11-26T12:01:42.241Z,100191.19
2022-11-26T12:04:42.844Z,100193.53
2022-11-26T12:07:28.206Z,100202.59
2022-11-26T12:10:08.961Z,100181.59
2022-11-26T12:12:38.970Z,100183.13
2022-11-26T12:15:23.534Z,100193.03
2022-11-26T12:17:57.152Z,100190.25
2022-11-26T12:20:50.470Z,100185.53
2022-11-26T12:23:34.088Z,100185.53
2022-11-26T12:26:56.549Z,100182.31
2022-11-26T12:29:49.631Z,100169.19
2022-11-26T12:32:36.995Z,100163.63
2022-11-26T12:35:12.196Z,100159.25
2022-11-26T12:37:42.715Z,100149.31
2022-11-26T12:40:24.597Z,100150.13
2022-11-26T12:43:00.511Z,100147.38
2022-11-26T12:45:42.793Z,100131.13
2022-11-26T12:48:15.358Z,100144.19
2022-11-26T12:50:51.742Z,100135.88
2022-11-26T12:53:37.137Z,100124.78
2022-11-26T12:56:25.165Z,100116.44
2022-11-26T12:59:13.558Z,100104.19
2022-11-26T13:01:40.278Z,100099.00
2022-11-26T13:04:37.253Z,100096.22
2022-11-26T13:06:56.363Z,100089.44
2022-11-26T13:09:41.588Z,100081.13
2022-11-26T13:12:18.716Z,100081.50
2022-11-26T13:14:56.716Z,100079.09
2022-11-26T13:17:37.819Z,100073.53
2022-11-26T13:20:23.086Z,100068.00
2022-11-26T13:23:15.472Z,100048.13
2022-11-26T13:26:13.818Z,100049.31
2022-11-26T13:29:23.480Z,100037.78
2022-11-26T13:32:09.842Z,100036.56
2022-11-26T13:34:54.392Z,100026.63
2022-11-26T13:37:40.383Z,100019.91
2022-11-26T13:40:25.358Z,100014.00
2022-11-26T13:43:16.929Z,99991.44
2022-11-26T13:46:02.419Z,99992.25
2022-11-26T13:48:47.270Z,99975.25
2022-11-26T13:51:37.607Z,99967.34
2022-11-26T13:54:10.026Z,99961.06
2022-11-26T13:56:38.322Z,99961.06
2022-11-26T13:59:16.290Z,99949.16
2022-11-26T14:01:43.075Z,99926.16
2022-11-26T14:04:16.079Z,99929.69
2022-11-26T14:07:04.387Z,99935.22
2022-11-26T14:09:43.227Z,99939.59
2022-11-26T14:12:11.693Z,99919.03
2022-11-26T14:14:40.331Z,99913.91
2022-11-26T14:17:07.154Z,99904.00
2022-11-26T14:19:39.668Z,99894.13
2022-11-26T14:22:21.282Z,99886.22
2022-11-26T14:24:51.012Z,99871.19
2022-11-26T14:27:25.005Z,99864.47
2022-11-26T14:29:57.629Z,99860.13
2022-11-26T14:32:26.791Z,99876.41
2022-11-26T14:34:56.281Z,99864.91
2022-11-26T14:37:26.211Z,99851.84
2022-11-26T14:39:59.152Z,99851.84
2022-11-26T14:42:26.186Z,99857.38
2022-11-26T14:45:02.631Z,99850.69
2022-11-26T14:47:30.989Z,99838.38
2022-11-26T14:50:04.647Z,99834.44
2022-11-26T14:52:35.648Z,99823.34
2022-11-26T14:55:24.040Z,99828.13
2022-11-26T14:57:55.132Z,99809.13
2022-11-26T15:00:28.343Z,99812.28
2022-11-26T15:02:55.293Z,99807.56
2022-11-26T15:05:22.044Z,99806.75
2022-11-26T15:07:57.591Z,99796.09
2022-11-26T15:10:24.811Z,99797.25
2022-11-26T15:12:53.467Z,99794.47
2022-11-26T15:15:23.767Z,99810.72
2022-11-26T15:17:57.877Z,99807.13
2022-11-26T15:20:25.872Z,99798.00
2022-11-26T15:22:59.119Z,99785.31
2022-11-26T15:25:34.263Z,99774.22
2022-11-26T15:28:25.192Z,99762.69
2022-11-26T15:31:03.138Z,99755.13
2022-11-26T15:33:32.799Z,99751.13
2022-11-26T15:36:00.346Z,99761.44
2022-11-26T15:38:32.751Z,99759.84
2022-11-26T15:41:05.552Z,99752.31
2022-11-26T15:43:44.652Z,99779.69
2022-11-26T15:46:14.239Z,99775.31
2022-11-26T15:48:53.129Z,99773.31
2022-11-26T15:51:22.830Z,99774.53
2022-11-26T15:53:50.637Z,99780.09
2022-11-26T15:56:24.850Z,99796.38
2022-11-26T15:58:56.386Z,99788.84
2022-11-26T16:01:26.245Z,99787.66
2022-11-26T16:03:54.565Z,99761.91
2022-11-26T16:06:39.664Z,99754.34
2022-11-26T16:09:10.680Z,99749.19
2022-11-26T16:11:57.615Z,99769.44
2022-11-26T16:14:40.761Z,99764.25
2022-11-26T16:17:16.701Z,99756.69
2022-11-26T16:19:54.606Z,99750.34
2022-11-26T16:22:27.081Z,99747.94
2022-11-26T16:25:01.336Z,99732.84
2022-11-26T16:27:29.595Z,99711.41
2022-11-26T16:29:56.278Z,99680.47
2022-11-26T16:32:22.972Z,99693.13
2022-11-26T16:34:49.671Z,99711.34
2022-11-26T16:37:27.300Z,99717.28
2022-11-26T16:40:10.050Z,99709.31
2022-11-26T16:42:37.514Z,99693.06
2022-11-26T16:45:05.148Z,99691.88
2022-11-26T16:47:36.490Z,99689.91
2022-11-26T16:50:03.981Z,99679.59
2022-11-26T16:52:30.766Z,99685.97
2022-11-26T16:54:59.599Z,99670.88
2022-11-26T16:57:27.962Z,99660.59
2022-11-26T16:59:59.967Z,99655.03
2022-11-26T17:02:26.860Z,99659.38
2022-11-26T17:04:53.499Z,99657.78
2022-11-26T17:07:35.695Z,99651.47
2022-11-26T17:10:03.701Z,99643.13
2022-11-26T17:12:30.355Z,99660.56
2022-11-26T17:14:56.988Z,99666.91
2022-11-26T17:17:28.567Z,99641.56
2022-11-26T17:19:56.793Z,99645.91
2022-11-26T17:22:26.828Z,99629.72
2022-11-26T17:24:53.469Z,99621.38
2022-11-26T17:27:23.473Z,99616.25
2022-11-26T17:29:50.463Z,99622.59
2022-11-26T17:32:19.126Z,99616.66
2022-11-26T17:34:46.534Z,99613.47
2022-11-26T17:37:40.756Z,99596.47
2022-11-26T17:40:35.038Z,99567.09
2022-11-26T17:43:01.807Z,99578.22
2022-11-26T17:45:28.654Z,99595.25
2022-11-26T17:47:55.557Z,99589.31
2022-11-26T17:50:26.020Z,99587.72
2022-11-26T17:52:54.904Z,99582.19
2022-11-26T17:55:23.841Z,99571.50
2022-11-26T17:57:50.817Z,99577.44
2022-11-26T18:00:24.746Z,99567.53
2022-11-26T18:02:52.153Z,99570.31
2022-11-26T18:05:19.377Z,99574.66
2022-11-26T18:07:46.292Z,99566.75
2022-11-26T18:10:18.776Z,99536.59
2022-11-26T18:12:46.009Z,99512.38
2022-11-26T18:15:21.278Z,99517.94
2022-11-26T18:17:51.076Z,99515.13
2022-11-26T18:20:21.579Z,99517.47
2022-11-26T18:22:53.925Z,99514.31
2022-11-26T18:25:20.785Z,99512.69
2022-11-26T18:27:47.502Z,99511.09
2022-11-26T18:30:14.542Z,99508.31
2022-11-26T18:32:41.390Z,99496.06
2022-11-26T18:35:08.621Z,99500.44
2022-11-26T18:37:38.773Z,99502.00
2022-11-26T18:40:08.140Z,99500.84
2022-11-26T18:42:37.490Z,99489.34
2022-11-26T18:45:09.958Z,99477.88
2022-11-26T18:47:38.137Z,99476.69
2022-11-26T18:50:06.938Z,99479.88
2022-11-26T18:52:34.091Z,99469.56
2022-11-26T18:55:05.211Z,99466.41
2022-11-26T18:57:32.555Z,99477.91
2022-11-26T18:59:59.297Z,99469.19
2022-11-26T19:02:28.967Z,99461.28
2022-11-26T19:04:55.841Z,99461.28
2022-11-26T19:07:22.798Z,99443.88
2022-11-26T19:09:49.643Z,99416.53
2022-11-26T19:12:16.506Z,99417.31
2022-11-26T19:14:43.328Z,99435.56
2022-11-26T19:17:10.419Z,99441.09
2022-11-26T19:19:38.275Z,99436.34
2022-11-26T19:22:05.497Z,99449.81
2022-11-26T19:24:32.350Z,99450.25
2022-11-26T19:26:59.161Z,99444.31
2022-11-26T19:29:25.984Z,99438.38
2022-11-26T19:31:53.979Z,99465.34
2022-11-26T19:34:21.033Z,99447.09
2022-11-26T19:36:49.162Z,99445.13
2022-11-26T19:39:16.946Z,99438.00
2022-11-26T19:41:44.195Z,99442.78
2022-11-26T19:44:12.046Z,99446.34
2022-11-26T19:46:41.375Z,99445.16
2022-11-26T19:49:12.263Z,99443.59
2022-11-26T19:51:40.676Z,99445.19
2022-11-26T19:54:08.169Z,99457.53
2022-11-26T19:56:35.614Z,99450.41
2022-11-26T19:59:03.094Z,99442.53
2022-11-26T20:01:32.877Z,99433.44
2022-11-26T20:04:04.954Z,99437.41
2022-11-26T20:06:33.720Z,99444.97
2022-11-26T20:09:00.837Z,99442.19
2022-11-26T20:11:28.911Z,99443.00
2022-11-26T20:13:56.957Z,99456.13
2022-11-26T20:16:27.029Z,99447.81
2022-11-26T20:18:53.967Z,99449.00
2022-11-26T20:21:23.822Z,99455.38
2022-11-26T20:23:51.869Z,99455.38
2022-11-26T20:26:22.002Z,99457.34
2022-11-26T20:28:50.058Z,99454.97
2022-11-26T20:31:23.382Z,99465.28
2022-11-26T20:33:53.223Z,99459.34
2022-11-26T20:36:23.223Z,99466.88
2022-11-26T20:38:55.295Z,99471.63
2022-11-26T20:41:24.459Z,99484.31
2022-11-26T20:43:56.560Z,99487.84
2022-11-26T20:46:25.982Z,99493.00
2022-11-26T20:48:53.988Z,99497.75
2022-11-26T20:51:22.360Z,99492.97
2022-11-26T20:53:50.959Z,99495.75
2022-11-26T20:56:23.050Z,99502.88
2022-11-26T20:58:51.157Z,99509.66
2022-11-26T21:01:27.923Z,99512.41
2022-11-26T21:03:55.557Z,99513.59
2022-11-26T21:06:29.926Z,99519.53
2022-11-26T21:09:01.945Z,99531.84
2022-11-26T21:11:29.862Z,99533.41
2022-11-26T21:14:00.164Z,99550.88
2022-11-26T21:16:28.469Z,99563.19
2022-11-26T21:18:55.721Z,99570.31
2022-11-26T21:21:24.033Z,99556.41
2022-11-26T21:23:51.148Z,99561.16
2022-11-26T21:26:23.035Z,99586.59
2022-11-26T21:28:53.974Z,99600.88
2022-11-26T21:31:22.028Z,99606.41
2022-11-26T21:33:59.034Z,99619.09
2022-11-26T21:36:26.835Z,99642.09
2022-11-26T21:38:55.218Z,99657.91
2022-11-26T21:41:23.434Z,99648.38
2022-11-26T21:43:52.034Z,99659.44
2022-11-26T21:46:25.418Z,99673.69
2022-11-26T21:48:53.524Z,99681.53
2022-11-26T21:51:21.122Z,99692.56
2022-11-26T21:53:49.780Z,99696.06
2022-11-26T21:56:20.625Z,99697.97
2022-11-26T21:58:48.060Z,99705.84
2022-11-26T22:01:24.595Z,99712.16
2022-11-26T22:03:54.362Z,99716.03
2022-11-26T22:06:23.144Z,99718.00
2022-11-26T22:08:52.462Z,99724.69
2022-11-26T22:11:22.129Z,99726.25
2022-11-26T22:13:54.712Z,99726.59
2022-11-26T22:16:23.798Z,99727.69
2022-11-26T22:18:51.899Z,99735.56
2022-11-26T22:21:22.522Z,99747.00
2022-11-26T22:23:50.669Z,99755.28
2022-11-26T22:26:19.645Z,99755.22
2022-11-26T22:28:47.412Z,99762.66
2022-11-26T22:31:24.625Z,99771.34
2022-11-26T22:33:57.188Z,99767.78
2022-11-26T22:36:24.900Z,99782.84
2022-11-26T22:38:52.657Z,99793.94
2022-11-26T22:41:20.592Z,99793.47
2022-11-26T22:43:49.414Z,99799.41
2022-11-26T22:46:19.225Z,99794.25
2022-11-26T22:49:13.304Z,99793.34
2022-11-26T22:51:40.368Z,99809.47
2022-11-26T22:54:10.023Z,99814.19
2022-11-26T22:56:38.036Z,99805.03
2022-11-26T22:59:07.382Z,99819.63
2022-11-26T23:01:36.302Z,99834.22
2022-11-26T23:04:06.525Z,99829.81
2022-11-26T23:06:35.589Z,99833.31
2022-11-26T23:09:05.875Z,99832.09
2022-11-26T23:11:39.352Z,99828.88
2022-11-26T23:14:07.684Z,99843.50
2022-11-26T23:16:36.349Z,99838.31
2022-11-26T23:19:04.141Z,99859.97
2022-11-26T23:21:38.574Z,99848.47
2022-11-26T23:24:06.028Z,99855.56
2022-11-26T23:26:34.669Z,99870.53
2022-11-26T23:29:02.473Z,99850.25
2022-11-26T23:31:34.801Z,99849.84
2022-11-26T23:34:02.875Z,99865.56
2022-11-26T23:36:30.543Z,99866.34
2022-11-26T23:39:00.462Z,99866.34
2022-11-26T23:41:28.722Z,99864.00
2022-11-26T23:43:55.917Z,99877.03
2022-11-26T23:46:26.570Z,99875.88
2022-11-26T23:48:55.200Z,99884.59
2022-11-26T23:51:24.941Z,99892.53
2022-11-26T23:53:53.072Z,99884.22
2022-11-26T23:56:22.931Z,99877.53
2022-11-26T23:58:54.480Z,99898.06
